createdAt,value
2017-12-31T00:02:27.268Z,34.70
2017-12-31T00:04:54.879Z,30.73
2017-12-31T00:07:22.422Z,31.75
2017-12-31T00:09:50.093Z,30.35
2017-12-31T00:12:17.648Z,30.60
2017-12-31T00:14:45.234Z,25.73
2017-12-31T00:19:50.391Z,26.37
2017-12-31T00:22:18.406Z,30.50
2017-12-31T00:24:45.978Z,32.28
2017-12-31T00:27:13.772Z,35.83
2017-12-31T00:29:42.077Z,35.95
2017-12-31T00:32:09.653Z,38.60
2017-12-31T00:34:37.315Z,37.70
2017-12-31T00:37:04.920Z,39.03
2017-12-31T00:39:32.532Z,31.00
2017-12-31T00:42:00.151Z,38.40
2017-12-31T00:44:28.292Z,52.28
2017-12-31T00:46:55.863Z,55.50
2017-12-31T00:49:23.469Z,45.35
2017-12-31T00:51:51.239Z,50.28
2017-12-31T00:54:18.852Z,47.20
2017-12-31T00:56:46.657Z,51.00
2017-12-31T00:59:14.540Z,66.12
2017-12-31T01:01:42.384Z,59.90
2017-12-31T01:04:10.010Z,56.33
2017-12-31T01:06:38.279Z,55.08
2017-12-31T01:09:06.513Z,56.92
2017-12-31T01:11:34.311Z,59.78
2017-12-31T01:14:01.941Z,67.72
2017-12-31T01:16:30.250Z,67.45
2017-12-31T01:18:58.042Z,61.83
2017-12-31T01:21:26.568Z,59.05
2017-12-31T01:23:54.766Z,57.30
2017-12-31T01:26:33.328Z,57.60
2017-12-31T01:29:02.926Z,54.60
2017-12-31T01:31:30.562Z,56.65
2017-12-31T01:33:58.149Z,54.60
2017-12-31T01:36:26.131Z,54.25
2017-12-31T01:38:54.579Z,56.67
2017-12-31T01:41:22.327Z,56.03
2017-12-31T01:43:49.864Z,52.60
2017-12-31T01:46:17.734Z,55.97
2017-12-31T01:48:57.017Z,61.10
2017-12-31T01:51:24.857Z,51.50
2017-12-31T01:53:52.622Z,48.63
2017-12-31T01:56:20.191Z,51.75
2017-12-31T01:58:47.793Z,43.08
2017-12-31T02:01:15.380Z,38.65
2017-12-31T02:03:42.963Z,41.50
2017-12-31T02:06:10.548Z,39.08
2017-12-31T02:08:38.138Z,43.53
2017-12-31T02:11:05.692Z,45.00
2017-12-31T02:13:33.249Z,44.17
2017-12-31T02:16:00.831Z,42.80
2017-12-31T02:18:28.424Z,43.38
2017-12-31T02:20:55.986Z,38.38
2017-12-31T02:23:23.593Z,33.83
2017-12-31T02:25:51.312Z,32.53
2017-12-31T02:28:18.935Z,27.05
2017-12-31T02:30:46.554Z,29.87
2017-12-31T02:33:14.376Z,26.02
2017-12-31T02:35:42.751Z,26.80
2017-12-31T02:38:11.147Z,24.33
2017-12-31T02:40:38.950Z,22.92
2017-12-31T02:43:06.842Z,23.17
2017-12-31T02:45:33.708Z,19.95
2017-12-31T02:48:01.353Z,24.23
2017-12-31T02:50:28.917Z,23.15
2017-12-31T02:52:57.213Z,25.77
2017-12-31T02:55:24.780Z,27.17
2017-12-31T02:57:52.551Z,33.00
2017-12-31T03:00:21.891Z,31.62
2017-12-31T03:02:49.725Z,32.50
2017-12-31T03:05:17.474Z,33.50
2017-12-31T03:07:45.292Z,36.67
2017-12-31T03:10:13.045Z,33.35
2017-12-31T03:12:41.016Z,38.60
2017-12-31T03:15:08.656Z,36.85
2017-12-31T03:17:36.262Z,36.35
2017-12-31T03:20:04.560Z,37.08
2017-12-31T03:22:33.156Z,38.00
2017-12-31T03:25:01.462Z,37.80
2017-12-31T03:27:29.062Z,39.30
2017-12-31T03:29:56.653Z,34.13
2017-12-31T03:32:24.221Z,37.53
2017-12-31T03:34:52.014Z,36.88
2017-12-31T03:37:19.826Z,39.25
2017-12-31T03:39:47.459Z,40.00
2017-12-31T03:42:15.369Z,37.97
2017-12-31T03:44:42.920Z,37.83
2017-12-31T03:47:10.523Z,38.90
2017-12-31T03:49:38.354Z,37.63
2017-12-31T03:52:05.963Z,40.17
2017-12-31T03:54:34.860Z,39.92
2017-12-31T03:57:02.627Z,41.80
2017-12-31T03:59:30.519Z,41.97
2017-12-31T04:01:58.107Z,44.13
2017-12-31T04:04:25.657Z,44.03
2017-12-31T04:06:53.216Z,43.13
2017-12-31T04:09:21.689Z,42.08
2017-12-31T04:11:49.217Z,42.25
2017-12-31T04:14:17.689Z,44.28
2017-12-31T04:16:45.351Z,45.58
2017-12-31T04:19:13.746Z,41.90
2017-12-31T04:21:41.533Z,41.88
2017-12-31T04:24:10.089Z,40.45
2017-12-31T04:26:37.791Z,38.88
2017-12-31T04:29:05.381Z,37.55
2017-12-31T04:31:32.968Z,39.08
2017-12-31T04:34:00.611Z,37.47
2017-12-31T04:36:30.263Z,38.08
2017-12-31T04:38:58.551Z,40.22
2017-12-31T04:41:26.165Z,41.00
2017-12-31T04:43:53.913Z,41.35
2017-12-31T04:46:21.733Z,42.40
2017-12-31T04:48:49.317Z,40.85
2017-12-31T04:51:16.953Z,37.35
2017-12-31T04:53:45.510Z,42.75
2017-12-31T04:56:13.293Z,40.72
2017-12-31T04:58:41.441Z,40.10
2017-12-31T05:01:09.287Z,36.15
2017-12-31T05:03:36.915Z,40.25
2017-12-31T05:06:04.497Z,39.97
2017-12-31T05:08:32.955Z,42.70
2017-12-31T05:11:00.978Z,58.67
2017-12-31T05:13:28.604Z,58.28
2017-12-31T05:15:57.042Z,54.85
2017-12-31T05:18:24.699Z,51.00
2017-12-31T05:20:53.497Z,51.83
2017-12-31T05:23:21.159Z,53.03
2017-12-31T05:25:48.726Z,49.42
2017-12-31T05:28:17.094Z,50.88
2017-12-31T05:30:44.691Z,49.60
2017-12-31T05:33:12.255Z,46.08
2017-12-31T05:35:40.728Z,50.08
2017-12-31T05:38:08.443Z,50.20
2017-12-31T05:40:37.296Z,49.55
2017-12-31T05:43:05.020Z,52.58
2017-12-31T05:45:32.983Z,61.97
2017-12-31T05:48:00.885Z,64.40
2017-12-31T05:50:29.655Z,61.13
2017-12-31T05:52:57.529Z,54.45
2017-12-31T05:55:25.306Z,51.37
2017-12-31T05:57:52.950Z,57.83
2017-12-31T06:00:30.676Z,57.58
2017-12-31T06:03:04.534Z,56.25
2017-12-31T06:05:32.560Z,54.72
2017-12-31T06:08:00.158Z,48.25
2017-12-31T06:10:27.790Z,49.15
2017-12-31T06:12:55.666Z,45.33
2017-12-31T06:15:23.309Z,44.70
2017-12-31T06:17:50.863Z,46.85
2017-12-31T06:20:18.499Z,48.28
2017-12-31T06:22:46.158Z,47.60
2017-12-31T06:25:13.985Z,49.08
2017-12-31T06:27:41.976Z,42.90
2017-12-31T06:30:09.881Z,45.10
2017-12-31T06:32:37.489Z,52.50
2017-12-31T06:35:05.485Z,53.03
2017-12-31T06:37:33.394Z,48.03
2017-12-31T06:40:00.990Z,55.83
2017-12-31T06:42:28.553Z,48.92
2017-12-31T06:44:56.129Z,54.25
2017-12-31T06:47:23.937Z,71.78
2017-12-31T06:49:51.532Z,71.85
2017-12-31T06:52:19.250Z,76.80
2017-12-31T06:54:47.034Z,70.00
2017-12-31T06:57:14.582Z,66.82
2017-12-31T06:59:47.708Z,64.43
2017-12-31T07:02:16.244Z,62.97
2017-12-31T07:04:44.493Z,61.65
2017-12-31T07:07:12.114Z,58.17
2017-12-31T07:09:39.895Z,49.00
2017-12-31T07:12:07.460Z,48.55
2017-12-31T07:14:35.064Z,46.37
2017-12-31T07:17:02.663Z,44.22
2017-12-31T07:19:31.028Z,44.67
2017-12-31T07:21:58.822Z,48.80
2017-12-31T07:24:26.450Z,52.55
2017-12-31T07:26:54.082Z,50.33
2017-12-31T07:29:21.697Z,51.00
2017-12-31T07:31:49.387Z,46.00
2017-12-31T07:34:17.196Z,45.75
2017-12-31T07:36:44.995Z,48.80
2017-12-31T07:39:12.816Z,43.63
2017-12-31T07:41:40.361Z,42.30
2017-12-31T07:44:08.134Z,39.10
2017-12-31T07:46:35.777Z,39.10
2017-12-31T07:49:03.542Z,36.37
2017-12-31T07:51:31.382Z,32.33
2017-12-31T07:53:58.931Z,30.67
2017-12-31T07:56:26.529Z,30.30
2017-12-31T07:58:54.472Z,31.03
2017-12-31T08:01:22.090Z,30.57
2017-12-31T08:03:49.750Z,30.10
2017-12-31T08:06:17.666Z,29.00
2017-12-31T08:08:45.240Z,30.67
2017-12-31T08:11:14.096Z,30.23
2017-12-31T08:13:41.967Z,30.57
2017-12-31T08:16:09.661Z,29.93
2017-12-31T08:18:37.456Z,33.07
2017-12-31T08:21:05.555Z,31.43
2017-12-31T08:23:34.410Z,32.27
2017-12-31T08:26:02.120Z,34.10
2017-12-31T08:28:30.177Z,40.10
2017-12-31T08:30:57.877Z,41.70
2017-12-31T08:33:25.572Z,42.20
2017-12-31T08:35:53.892Z,44.27
2017-12-31T08:38:22.669Z,44.73
2017-12-31T08:40:50.642Z,47.17
2017-12-31T08:43:18.385Z,43.90
2017-12-31T08:45:46.178Z,43.60
2017-12-31T08:48:14.877Z,46.10
2017-12-31T08:50:44.855Z,42.67
2017-12-31T08:53:16.152Z,41.97
2017-12-31T08:55:46.505Z,41.27
2017-12-31T08:58:14.772Z,51.00
2017-12-31T09:00:45.157Z,53.87
2017-12-31T09:03:13.578Z,57.23
2017-12-31T09:05:41.593Z,61.93
2017-12-31T09:08:09.225Z,65.43
2017-12-31T09:10:36.757Z,74.90
2017-12-31T09:13:05.447Z,77.03
2017-12-31T09:15:33.808Z,72.30
2017-12-31T09:18:01.619Z,74.13
2017-12-31T09:20:30.967Z,74.37
2017-12-31T09:22:58.551Z,61.70
2017-12-31T09:25:26.531Z,63.37
2017-12-31T09:27:54.150Z,57.43
2017-12-31T09:30:21.827Z,68.93
2017-12-31T09:32:49.654Z,69.20
2017-12-31T09:35:17.259Z,73.13
2017-12-31T09:37:45.239Z,74.03
2017-12-31T09:40:12.898Z,67.10
2017-12-31T09:42:40.533Z,78.33
2017-12-31T09:45:08.750Z,75.40
2017-12-31T09:47:36.344Z,71.13
2017-12-31T09:50:03.914Z,69.97
2017-12-31T09:52:31.516Z,69.13
2017-12-31T09:54:59.085Z,71.63
2017-12-31T09:57:26.620Z,65.60
2017-12-31T09:59:54.182Z,59.73
2017-12-31T10:02:21.763Z,69.20
2017-12-31T10:04:49.277Z,75.13
2017-12-31T10:07:16.802Z,81.40
2017-12-31T10:09:44.389Z,82.70
2017-12-31T10:12:11.943Z,68.00
2017-12-31T10:14:39.499Z,65.20
2017-12-31T10:17:07.065Z,64.10
2017-12-31T10:19:34.614Z,64.10
2017-12-31T10:22:02.160Z,56.27
2017-12-31T10:24:29.945Z,54.90
2017-12-31T10:26:57.498Z,55.23
2017-12-31T10:29:25.050Z,56.07
2017-12-31T10:31:52.661Z,55.30
2017-12-31T10:34:20.200Z,53.83
2017-12-31T10:36:47.793Z,56.80
2017-12-31T10:39:15.499Z,52.67
2017-12-31T10:41:43.018Z,53.10
2017-12-31T10:44:10.590Z,51.30
2017-12-31T10:46:38.197Z,49.87
2017-12-31T10:49:05.972Z,51.13
2017-12-31T10:51:33.663Z,50.10
2017-12-31T10:54:01.237Z,55.60
2017-12-31T10:56:29.017Z,53.93
2017-12-31T10:58:56.574Z,54.37
2017-12-31T11:01:24.247Z,50.37
2017-12-31T11:03:52.032Z,50.47
2017-12-31T11:06:19.587Z,48.10
2017-12-31T11:08:48.156Z,49.30
2017-12-31T11:11:15.935Z,51.40
2017-12-31T11:13:43.475Z,49.43
2017-12-31T11:16:12.002Z,44.77
2017-12-31T11:18:39.605Z,46.83
2017-12-31T11:21:20.029Z,52.20
2017-12-31T11:24:14.376Z,52.00
2017-12-31T11:26:42.331Z,55.47
2017-12-31T11:31:58.019Z,54.90
2017-12-31T11:34:26.130Z,56.90
2017-12-31T11:36:54.295Z,52.20
2017-12-31T11:39:22.178Z,53.50
2017-12-31T11:41:50.033Z,54.57
2017-12-31T11:44:17.815Z,47.97
2017-12-31T11:46:45.820Z,59.97
2017-12-31T11:49:14.626Z,59.63
2017-12-31T11:51:42.326Z,60.73
2017-12-31T11:54:09.990Z,58.63
2017-12-31T11:56:37.630Z,50.60
2017-12-31T11:59:05.186Z,56.50
2017-12-31T12:01:32.827Z,45.53
2017-12-31T12:04:00.439Z,45.80
2017-12-31T12:06:28.350Z,53.07
2017-12-31T12:08:56.194Z,49.20
2017-12-31T12:11:23.876Z,46.80
2017-12-31T12:13:52.532Z,38.27
2017-12-31T12:16:20.350Z,42.28
2017-12-31T12:18:51.257Z,39.10
2017-12-31T12:21:18.839Z,37.20
2017-12-31T12:23:46.441Z,41.90
2017-12-31T12:26:15.036Z,35.60
2017-12-31T12:28:42.587Z,41.10
2017-12-31T12:31:10.181Z,28.70
2017-12-31T12:33:47.833Z,27.97
2017-12-31T12:36:15.482Z,25.50
2017-12-31T12:38:43.110Z,25.13
2017-12-31T12:41:11.466Z,23.40
2017-12-31T12:43:40.270Z,25.53
2017-12-31T12:46:08.081Z,25.93
2017-12-31T12:48:38.222Z,25.73
2017-12-31T12:51:06.063Z,27.37
2017-12-31T12:53:33.614Z,30.10
2017-12-31T12:56:01.250Z,30.73
2017-12-31T12:58:28.981Z,33.80
2017-12-31T13:00:56.862Z,32.60
2017-12-31T13:03:25.412Z,29.90
2017-12-31T13:05:53.683Z,29.83
2017-12-31T13:09:06.719Z,30.53
2017-12-31T13:11:35.963Z,31.80
2017-12-31T13:14:04.657Z,30.70
2017-12-31T13:16:32.329Z,32.47
2017-12-31T13:19:01.096Z,31.63
2017-12-31T13:21:28.935Z,36.47
2017-12-31T13:23:58.670Z,33.37
2017-12-31T13:26:26.525Z,39.40
2017-12-31T13:28:55.550Z,37.60
2017-12-31T13:31:25.195Z,35.27
2017-12-31T13:33:53.014Z,35.03
2017-12-31T13:36:20.846Z,38.30
2017-12-31T13:38:50.997Z,37.40
2017-12-31T13:41:19.184Z,35.20
2017-12-31T13:43:49.005Z,38.20
2017-12-31T13:46:19.129Z,39.03
2017-12-31T13:48:46.934Z,37.67
2017-12-31T13:51:14.667Z,36.43
2017-12-31T13:53:43.181Z,34.87
2017-12-31T13:56:11.725Z,35.57
2017-12-31T13:58:39.886Z,38.80
2017-12-31T14:01:08.116Z,36.97
2017-12-31T14:03:38.154Z,34.80
2017-12-31T14:06:07.990Z,34.80
2017-12-31T14:08:36.375Z,36.97
2017-12-31T14:11:04.141Z,34.73
2017-12-31T14:13:31.965Z,36.10
2017-12-31T14:16:27.608Z,35.70
2017-12-31T14:19:01.409Z,37.67
2017-12-31T14:21:29.148Z,42.97
2017-12-31T14:23:57.032Z,87.97
2017-12-31T14:26:24.637Z,75.33
2017-12-31T14:28:54.053Z,50.53
2017-12-31T14:31:22.544Z,98.90
2017-12-31T14:33:51.272Z,50.50
2017-12-31T14:36:20.729Z,48.63
2017-12-31T14:42:11.643Z,45.47
2017-12-31T14:44:40.664Z,41.47
2017-12-31T14:47:11.611Z,39.47
2017-12-31T14:49:40.892Z,41.30
2017-12-31T14:52:09.568Z,43.33
2017-12-31T14:54:40.162Z,40.83
2017-12-31T14:57:24.261Z,38.10
2017-12-31T14:59:58.054Z,38.30
2017-12-31T15:02:25.917Z,40.37
2017-12-31T15:04:57.902Z,44.53
2017-12-31T15:07:26.246Z,37.90
2017-12-31T15:09:54.424Z,36.80
2017-12-31T15:12:23.047Z,33.03
2017-12-31T15:14:50.843Z,30.67
2017-12-31T15:17:22.202Z,36.00
2017-12-31T15:19:50.010Z,34.33
2017-12-31T15:22:17.866Z,35.07
2017-12-31T15:24:45.508Z,43.00
2017-12-31T15:27:13.567Z,39.40
2017-12-31T15:29:41.644Z,38.93
2017-12-31T15:34:51.369Z,38.72
2017-12-31T15:37:21.365Z,39.38
2017-12-31T15:39:49.953Z,43.67
2017-12-31T15:42:17.718Z,46.77
2017-12-31T15:44:47.228Z,375.10
2017-12-31T15:47:38.879Z,69.90
2017-12-31T15:50:06.973Z,189.43
2017-12-31T15:52:34.634Z,103.90
2017-12-31T15:55:02.252Z,87.05
2017-12-31T15:57:29.969Z,83.53
2017-12-31T15:59:57.840Z,82.40
2017-12-31T16:02:26.669Z,132.65
2017-12-31T16:04:54.410Z,137.77
2017-12-31T16:07:23.160Z,145.68
2017-12-31T16:10:03.808Z,128.60
2017-12-31T16:12:39.076Z,136.43
2017-12-31T16:15:08.784Z,134.63
2017-12-31T16:17:42.247Z,125.38
2017-12-31T16:20:10.341Z,115.70
2017-12-31T16:22:38.110Z,103.25
2017-12-31T16:25:16.428Z,118.80
2017-12-31T16:27:46.989Z,115.35
2017-12-31T16:30:14.872Z,104.80
2017-12-31T19:10:33.237Z,59.00
2017-12-31T19:13:01.027Z,65.40
2017-12-31T19:15:28.696Z,64.00
2017-12-31T19:17:56.423Z,75.05
2017-12-31T19:23:37.469Z,65.25
2017-12-31T19:26:05.318Z,72.03
2017-12-31T19:28:33.172Z,82.65
2017-12-31T19:31:01.244Z,74.57
2017-12-31T19:33:29.347Z,77.37
2017-12-31T19:35:57.508Z,83.32
2017-12-31T19:38:25.492Z,83.62
2017-12-31T19:40:56.603Z,90.68
2017-12-31T19:43:24.374Z,89.47
2017-12-31T19:45:53.716Z,90.57
2017-12-31T19:48:21.736Z,80.07
2017-12-31T19:50:50.212Z,142.27
2017-12-31T19:53:17.944Z,113.60
2017-12-31T19:55:45.698Z,111.03
2017-12-31T19:58:13.677Z,112.75
2017-12-31T20:00:41.798Z,105.22
2017-12-31T20:03:09.925Z,102.82
2017-12-31T20:05:38.084Z,99.68
2017-12-31T20:08:05.940Z,100.55
2017-12-31T20:10:34.019Z,95.62
2017-12-31T20:13:01.854Z,95.85
2017-12-31T20:15:30.086Z,92.45
2017-12-31T20:17:57.835Z,96.95
2017-12-31T20:20:26.055Z,94.07
2017-12-31T20:22:53.740Z,93.93
2017-12-31T20:25:21.696Z,98.78
2017-12-31T20:27:49.380Z,100.72
2017-12-31T20:30:17.184Z,96.97
2017-12-31T20:32:44.946Z,96.45
2017-12-31T20:35:12.959Z,110.30
2017-12-31T20:37:41.674Z,99.43
2017-12-31T20:40:21.615Z,96.30
2017-12-31T20:42:49.500Z,97.07
2017-12-31T20:45:17.478Z,97.70
2017-12-31T20:47:45.484Z,111.35
2017-12-31T20:50:13.383Z,111.65
2017-12-31T20:52:41.184Z,126.40
2017-12-31T20:55:08.918Z,121.60
2017-12-31T20:58:07.392Z,123.00
2017-12-31T21:00:35.099Z,110.20
2017-12-31T21:03:02.957Z,107.40
2017-12-31T21:05:30.685Z,103.05
2017-12-31T21:07:58.513Z,175.07
2017-12-31T21:10:26.344Z,274.08
2017-12-31T21:12:54.807Z,278.17
2017-12-31T21:15:22.549Z,270.37
2017-12-31T21:17:50.385Z,237.20
2017-12-31T21:20:18.114Z,222.18
2017-12-31T21:22:46.802Z,216.85
2017-12-31T21:25:14.493Z,213.00
2017-12-31T21:27:42.228Z,204.05
2017-12-31T21:30:10.179Z,208.35
2017-12-31T21:32:37.872Z,199.70
2017-12-31T21:35:05.541Z,189.43
2017-12-31T21:37:33.713Z,141.18
2017-12-31T21:40:01.386Z,140.62
2017-12-31T21:42:29.112Z,132.43
2017-12-31T21:44:56.862Z,140.05
2017-12-31T21:47:24.573Z,142.95
2017-12-31T21:49:52.424Z,129.10
2017-12-31T21:52:20.141Z,129.18
2017-12-31T21:54:47.832Z,114.85
2017-12-31T21:57:15.524Z,124.55
2017-12-31T21:59:43.386Z,138.48
2017-12-31T22:02:11.337Z,134.98
2017-12-31T22:04:38.948Z,299.00
2017-12-31T22:07:07.899Z,191.07
2017-12-31T22:09:35.815Z,279.20
2017-12-31T22:12:03.477Z,320.98
2017-12-31T22:14:31.447Z,258.83
2017-12-31T22:16:59.801Z,289.20
2017-12-31T22:19:27.509Z,241.32
2017-12-31T22:21:56.933Z,283.20
2017-12-31T22:24:25.441Z,361.75
2017-12-31T22:26:53.298Z,397.83
2017-12-31T22:36:18.094Z,246.65
2017-12-31T22:43:56.806Z,216.25
2017-12-31T22:46:27.966Z,206.00
2017-12-31T22:49:00.805Z,215.10
2017-12-31T22:51:28.736Z,220.12
2017-12-31T22:53:59.586Z,234.07
2017-12-31T22:56:29.358Z,213.62
2017-12-31T22:59:01.983Z,237.23
2017-12-31T23:04:59.235Z,216.43
2017-12-31T23:07:28.004Z,195.73
2017-12-31T23:09:56.683Z,196.10
2017-12-31T23:12:25.556Z,231.60
2017-12-31T23:14:53.964Z,133.48
2017-12-31T23:17:23.964Z,207.32
2017-12-31T23:19:51.846Z,293.25
2017-12-31T23:22:20.733Z,318.15
2017-12-31T23:25:10.620Z,343.17
2017-12-31T23:38:01.333Z,238.65
2017-12-31T23:40:30.888Z,227.68
2017-12-31T23:42:59.242Z,210.98
2017-12-31T23:45:44.509Z,194.73
2017-12-31T23:48:12.075Z,171.07
2017-12-31T23:50:43.983Z,166.00
2017-12-31T23:53:12.682Z,174.62
2017-12-31T23:55:41.806Z,174.10
2017-12-31T23:58:10.218Z,181.23
